PWSweather.com
Personal Weather Stations
Station Observations
VPOKROGLO
Kal Nad Kanalom, PrimorskaSI

Kal Nad KanalomPrimorskaSI

Lat: 46.072, Lon: 13.734

Elevation: 2526

Station Type: WS-2355

http://www.okroglovreme.com

High Low Average
Temperature 52.3°F11.3°C 49.1°F9.5°C 50.0°F10.0°C
Dew Point 50.4°F10.2°C 47.7°F8.7°C 48.5°F9.2°C
Winds 5.8 mph 9.3 kmh Calm Calm 1.0 mph SE1.6 kmh SE
Wind Gusts 9.6 mph15.4 kmh -- 3.0 mph4.8 kmh
Humidity 96% 91% 95%
Pressure 29.93 in1013.5 mb 29.72 in1006.4 mb -
Precipitation 0.14 in3.6 mm - -
Hour Temp Dew Point Humidity Winds Wind Gusts Pressure Precip Precip Rate Daily Precip Total
05:51 AM 49.8°F9.9°C 48.4°F9.1°C 95% 3.0 mph SSW4.8 kmh SSW 3.6 mph5.8 kmh 29.84 in1010.5 mb 0.00 in0.0 mm 0.00 in0.0 mm 0.02 in0.5 mm
05:56 AM 49.8°F9.9°C 48.4°F9.1°C 95% 2.9 mph SSW4.7 kmh SSW 3.6 mph5.8 kmh 29.84 in1010.5 mb 0.00 in0.0 mm 0.00 in0.0 mm 0.02 in0.5 mm
06:01 AM 49.8°F9.9°C 48.4°F9.1°C 95% 2.8 mph SSW4.5 kmh SSW 3.6 mph5.8 kmh 29.84 in1010.5 mb 0.00 in0.0 mm 0.00 in0.0 mm 0.02 in0.5 mm
06:03 AM 50.2°F10.1°C 48.5°F9.2°C 94% 4.0 mph SW6.4 kmh SW 6.5 mph10.5 kmh 29.93 in1013.5 mb 0.02 in0.5 mm 0.60 in15.2 mm 0.02 in0.5 mm
06:04 AM 49.5°F9.7°C 48.1°F8.9°C 95% 4.6 mph WSW7.4 kmh WSW 5.8 mph9.3 kmh 29.93 in1013.5 mb 0.00 in0.0 mm 0.00 in0.0 mm 0.02 in0.5 mm
06:05 AM 49.3°F9.6°C 48.2°F9.0°C 96% Calm Calm -- 29.85 in1010.8 mb 0.00 in0.0 mm 0.00 in0.0 mm 0.02 in0.5 mm
06:15 AM 49.8°F9.9°C 48.4°F9.1°C 95% 1.9 mph SSW3.1 kmh SSW 7.2 mph11.6 kmh 29.84 in1010.5 mb 0.00 in0.0 mm 0.00 in0.0 mm 0.02 in0.5 mm
06:30 AM 49.8°F9.9°C 48.4°F9.1°C 95% 2.2 mph S3.5 kmh S 9.6 mph15.4 kmh 29.84 in1010.5 mb 0.00 in0.0 mm 0.00 in0.0 mm 0.02 in0.5 mm
06:45 AM 49.8°F9.9°C 48.2°F9.0°C 94% 3.2 mph S5.1 kmh S 8.9 mph14.3 kmh 29.84 in1010.5 mb 0.00 in0.0 mm 0.00 in0.0 mm 0.02 in0.5 mm
07:00 AM 50.4°F10.2°C 48.7°F9.3°C 94% 2.1 mph SSW3.4 kmh SSW 8.5 mph13.7 kmh 29.85 in1010.8 mb 0.00 in0.0 mm 0.00 in0.0 mm 0.02 in0.5 mm
07:15 AM 50.5°F10.3°C 48.6°F9.2°C 93% 0.9 mph SSW1.4 kmh SSW 4.7 mph7.6 kmh 29.85 in1010.8 mb 0.00 in0.0 mm 0.00 in0.0 mm 0.02 in0.5 mm
07:30 AM 49.8°F9.9°C 47.9°F8.8°C 93% 2.1 mph SSW3.4 kmh SSW 8.1 mph13.0 kmh 29.85 in1010.8 mb 0.00 in0.0 mm 0.00 in0.0 mm 0.02 in0.5 mm
07:45 AM 50.4°F10.2°C 48.4°F9.1°C 93% 1.4 mph SSW2.3 kmh SSW 4.9 mph7.9 kmh 29.84 in1010.5 mb 0.00 in0.0 mm 0.00 in0.0 mm 0.02 in0.5 mm
08:00 AM 50.9°F10.5°C 48.7°F9.3°C 92% 1.9 mph SSW3.1 kmh SSW 4.9 mph7.9 kmh 29.84 in1010.5 mb 0.00 in0.0 mm 0.00 in0.0 mm 0.02 in0.5 mm
08:15 AM 51.1°F10.6°C 49.1°F9.5°C 93% 1.2 mph SW1.9 kmh SW 4.5 mph7.2 kmh 29.85 in1010.8 mb 0.00 in0.0 mm 0.00 in0.0 mm 0.02 in0.5 mm
08:30 AM 51.4°F10.8°C 49.5°F9.7°C 93% 2.0 mph SW3.2 kmh SW 5.6 mph9.0 kmh 29.85 in1010.8 mb 0.00 in0.0 mm 0.00 in0.0 mm 0.02 in0.5 mm
08:45 AM 52.0°F11.1°C 49.4°F9.7°C 91% 3.6 mph SW5.8 kmh SW 9.4 mph15.1 kmh 29.84 in1010.5 mb 0.00 in0.0 mm 0.00 in0.0 mm 0.02 in0.5 mm
09:00 AM 51.6°F10.9°C 49.4°F9.7°C 92% 1.7 mph SW2.7 kmh SW 6.7 mph10.8 kmh 29.85 in1010.8 mb 0.00 in0.0 mm 0.00 in0.0 mm 0.02 in0.5 mm
09:15 AM 51.4°F10.8°C 49.5°F9.7°C 93% 2.1 mph WSW3.4 kmh WSW 7.2 mph11.6 kmh 29.86 in1011.2 mb 0.00 in0.0 mm 0.00 in0.0 mm 0.02 in0.5 mm
09:30 AM 51.6°F10.9°C 49.7°F9.8°C 93% 1.1 mph WNW1.8 kmh WNW 4.0 mph6.4 kmh 29.85 in1010.8 mb 0.00 in0.0 mm 0.00 in0.0 mm 0.02 in0.5 mm
09:45 AM 51.4°F10.8°C 49.5°F9.7°C 93% 1.9 mph WSW3.1 kmh WSW 6.3 mph10.1 kmh 29.85 in1010.8 mb 0.00 in0.0 mm 0.00 in0.0 mm 0.02 in0.5 mm
10:00 AM 51.4°F10.8°C 49.5°F9.7°C 93% 0.6 mph W1.0 kmh W 2.0 mph3.2 kmh 29.85 in1010.8 mb 0.00 in0.0 mm 0.00 in0.0 mm 0.02 in0.5 mm
10:15 AM 52.3°F11.3°C 50.4°F10.2°C 93% 0.5 mph WSW0.8 kmh WSW 2.9 mph4.7 kmh 29.84 in1010.5 mb 0.00 in0.0 mm 0.00 in0.0 mm 0.02 in0.5 mm
10:30 AM 52.3°F11.3°C 50.1°F10.1°C 92% 1.3 mph WSW2.1 kmh WSW 3.8 mph6.1 kmh 29.85 in1010.8 mb 0.00 in0.0 mm 0.00 in0.0 mm 0.02 in0.5 mm
10:45 AM 52.2°F11.2°C 49.6°F9.8°C 91% 1.8 mph SW2.9 kmh SW 6.3 mph10.1 kmh 29.85 in1010.8 mb 0.00 in0.0 mm 0.00 in0.0 mm 0.02 in0.5 mm
11:00 AM 51.6°F10.9°C 49.1°F9.5°C 91% 0.8 mph SSW1.3 kmh SSW 4.9 mph7.9 kmh 29.85 in1010.8 mb 0.02 in0.5 mm 0.03 in0.8 mm 0.04 in1.0 mm
11:15 AM 51.4°F10.8°C 48.9°F9.4°C 91% Calm Calm 0.7 mph1.1 kmh 29.85 in1010.8 mb 0.02 in0.5 mm 0.00 in0.0 mm 0.04 in1.0 mm
11:30 AM 52.0°F11.1°C 49.7°F9.8°C 92% 0.9 mph SW1.4 kmh SW 3.6 mph5.8 kmh 29.85 in1010.8 mb 0.02 in0.5 mm 0.00 in0.0 mm 0.04 in1.0 mm
11:45 AM 52.3°F11.3°C 50.1°F10.1°C 92% 1.0 mph SW1.6 kmh SW 3.6 mph5.8 kmh 29.85 in1010.8 mb 0.02 in0.5 mm 0.00 in0.0 mm 0.04 in1.0 mm
12:00 PM 52.0°F11.1°C 50.0°F10.0°C 93% 0.2 mph WSW0.3 kmh WSW 2.2 mph3.5 kmh 29.84 in1010.5 mb 0.00 in0.0 mm 0.00 in0.0 mm 0.04 in1.0 mm
12:15 PM 51.6°F10.9°C 49.7°F9.8°C 93% 0.2 mph WSW0.3 kmh WSW 2.0 mph3.2 kmh 29.84 in1010.5 mb 0.00 in0.0 mm 0.00 in0.0 mm 0.04 in1.0 mm
12:30 PM 51.8°F11.0°C 49.8°F9.9°C 93% 1.0 mph SW1.6 kmh SW 6.9 mph11.1 kmh 29.84 in1010.5 mb 0.00 in0.0 mm 0.00 in0.0 mm 0.04 in1.0 mm
12:45 PM 52.0°F11.1°C 50.0°F10.0°C 93% 0.3 mph SW0.5 kmh SW 2.9 mph4.7 kmh 29.83 in1010.2 mb 0.00 in0.0 mm 0.00 in0.0 mm 0.04 in1.0 mm
01:00 PM 51.8°F11.0°C 49.8°F9.9°C 93% 0.9 mph SW1.4 kmh SW 4.0 mph6.4 kmh 29.83 in1010.2 mb 0.00 in0.0 mm 0.00 in0.0 mm 0.04 in1.0 mm
01:15 PM 51.6°F10.9°C 49.9°F9.9°C 94% 1.0 mph SW1.6 kmh SW 4.0 mph6.4 kmh 29.83 in1010.2 mb 0.00 in0.0 mm 0.00 in0.0 mm 0.04 in1.0 mm
01:30 PM 51.3°F10.7°C 49.6°F9.8°C 94% 1.1 mph SW1.8 kmh SW 3.8 mph6.1 kmh 29.83 in1010.2 mb 0.02 in0.5 mm 0.08 in2.0 mm 0.06 in1.5 mm
01:45 PM 51.4°F10.8°C 49.8°F9.9°C 94% 0.4 mph SW0.6 kmh SW 2.7 mph4.3 kmh 29.83 in1010.2 mb 0.04 in1.0 mm 0.08 in2.0 mm 0.08 in2.0 mm
02:00 PM 51.4°F10.8°C 49.8°F9.9°C 94% 0.3 mph WNW0.5 kmh WNW 2.7 mph4.3 kmh 29.82 in1009.8 mb 0.04 in1.0 mm 0.00 in0.0 mm 0.08 in2.0 mm
02:15 PM 51.6°F10.9°C 49.9°F9.9°C 94% 0.1 mph NW0.2 kmh NW 2.0 mph3.2 kmh 29.81 in1009.5 mb 0.04 in1.0 mm 0.00 in0.0 mm 0.08 in2.0 mm
02:30 PM 51.6°F10.9°C 49.9°F9.9°C 94% 1.7 mph SW2.7 kmh SW 5.1 mph8.2 kmh 29.81 in1009.5 mb 0.00 in0.0 mm 0.00 in0.0 mm 0.08 in2.0 mm
02:45 PM 51.4°F10.8°C 49.8°F9.9°C 94% 0.3 mph SW0.5 kmh SW 4.5 mph7.2 kmh 29.81 in1009.5 mb 0.00 in0.0 mm 0.00 in0.0 mm 0.08 in2.0 mm
03:00 PM 51.3°F10.7°C 49.6°F9.8°C 94% 1.5 mph SSW2.4 kmh SSW 4.5 mph7.2 kmh 29.80 in1009.1 mb 0.00 in0.0 mm 0.00 in0.0 mm 0.08 in2.0 mm
03:15 PM 50.9°F10.5°C 49.2°F9.6°C 94% 0.9 mph S1.4 kmh S 3.8 mph6.1 kmh 29.80 in1009.1 mb 0.00 in0.0 mm 0.00 in0.0 mm 0.08 in2.0 mm
03:30 PM 51.1°F10.6°C 49.1°F9.5°C 93% 0.4 mph SSW0.6 kmh SSW 3.1 mph5.0 kmh 29.80 in1009.1 mb 0.00 in0.0 mm 0.00 in0.0 mm 0.08 in2.0 mm
03:45 PM 51.1°F10.6°C 49.1°F9.5°C 93% 0.4 mph SSW0.6 kmh SSW 5.1 mph8.2 kmh 29.80 in1009.1 mb 0.00 in0.0 mm 0.00 in0.0 mm 0.08 in2.0 mm
04:00 PM 50.7°F10.4°C 48.8°F9.3°C 93% Calm Calm 1.1 mph1.8 kmh 29.79 in1008.8 mb 0.00 in0.0 mm 0.00 in0.0 mm 0.08 in2.0 mm
04:15 PM 50.7°F10.4°C 48.8°F9.3°C 93% Calm Calm 1.8 mph2.9 kmh 29.79 in1008.8 mb 0.00 in0.0 mm 0.00 in0.0 mm 0.08 in2.0 mm
04:30 PM 50.9°F10.5°C 49.2°F9.6°C 94% 0.2 mph SSE0.3 kmh SSE 3.1 mph5.0 kmh 29.78 in1008.5 mb 0.00 in0.0 mm 0.00 in0.0 mm 0.08 in2.0 mm
04:45 PM 50.9°F10.5°C 49.2°F9.6°C 94% 0.3 mph SW0.5 kmh SW 3.1 mph5.0 kmh 29.78 in1008.5 mb 0.00 in0.0 mm 0.00 in0.0 mm 0.08 in2.0 mm
05:00 PM 50.7°F10.4°C 49.1°F9.5°C 94% Calm Calm -- 29.78 in1008.5 mb 0.00 in0.0 mm 0.00 in0.0 mm 0.08 in2.0 mm
05:15 PM 50.5°F10.3°C 48.9°F9.4°C 94% Calm Calm -- 29.77 in1008.1 mb 0.00 in0.0 mm 0.00 in0.0 mm 0.08 in2.0 mm
05:30 PM 50.5°F10.3°C 48.9°F9.4°C 94% 0.1 mph SW0.2 kmh SW 2.2 mph3.5 kmh 29.77 in1008.1 mb 0.02 in0.5 mm 0.08 in2.0 mm 0.10 in2.5 mm
05:45 PM 50.5°F10.3°C 48.9°F9.4°C 94% 0.1 mph SSW0.2 kmh SSW 2.5 mph4.0 kmh 29.76 in1007.8 mb 0.02 in0.5 mm 0.00 in0.0 mm 0.10 in2.5 mm
06:00 PM 50.5°F10.3°C 49.2°F9.6°C 95% Calm Calm 1.6 mph2.6 kmh 29.76 in1007.8 mb 0.02 in0.5 mm 0.00 in0.0 mm 0.10 in2.5 mm
06:15 PM 50.5°F10.3°C 49.2°F9.6°C 95% 0.8 mph SSW1.3 kmh SSW 4.3 mph6.9 kmh 29.76 in1007.8 mb 0.02 in0.5 mm 0.00 in0.0 mm 0.10 in2.5 mm
06:30 PM 50.4°F10.2°C 49.0°F9.4°C 95% 1.0 mph SSW1.6 kmh SSW 4.5 mph7.2 kmh 29.76 in1007.8 mb 0.00 in0.0 mm 0.00 in0.0 mm 0.10 in2.5 mm
06:45 PM 50.2°F10.1°C 48.8°F9.3°C 95% Calm Calm 0.9 mph1.4 kmh 29.75 in1007.5 mb 0.02 in0.5 mm 0.08 in2.0 mm 0.12 in3.0 mm
07:00 PM 49.8°F9.9°C 48.2°F9.0°C 94% 0.2 mph S0.3 kmh S 1.6 mph2.6 kmh 29.76 in1007.8 mb 0.02 in0.5 mm 0.00 in0.0 mm 0.12 in3.0 mm
07:15 PM 50.2°F10.1°C 48.8°F9.3°C 95% Calm Calm -- 29.75 in1007.5 mb 0.02 in0.5 mm 0.00 in0.0 mm 0.12 in3.0 mm
07:30 PM 49.8°F9.9°C 48.2°F9.0°C 94% 0.2 mph S0.3 kmh S 3.1 mph5.0 kmh 29.76 in1007.8 mb 0.02 in0.5 mm 0.00 in0.0 mm 0.12 in3.0 mm
07:45 PM 49.8°F9.9°C 48.2°F9.0°C 94% Calm Calm -- 29.76 in1007.8 mb 0.00 in0.0 mm 0.00 in0.0 mm 0.12 in3.0 mm
08:00 PM 49.8°F9.9°C 48.2°F9.0°C 94% Calm Calm -- 29.76 in1007.8 mb 0.00 in0.0 mm 0.00 in0.0 mm 0.12 in3.0 mm
08:15 PM 49.8°F9.9°C 48.2°F9.0°C 94% Calm Calm -- 29.76 in1007.8 mb 0.00 in0.0 mm 0.00 in0.0 mm 0.12 in3.0 mm
08:30 PM 49.8°F9.9°C 48.2°F9.0°C 94% Calm Calm -- 29.75 in1007.5 mb 0.00 in0.0 mm 0.00 in0.0 mm 0.12 in3.0 mm
08:45 PM 49.6°F9.8°C 48.3°F9.1°C 95% Calm Calm -- 29.75 in1007.5 mb 0.00 in0.0 mm 0.00 in0.0 mm 0.12 in3.0 mm
08:50 PM 49.6°F9.8°C 48.3°F9.1°C 95% Calm Calm -- 29.75 in1007.5 mb 0.00 in0.0 mm 0.00 in0.0 mm 0.12 in3.0 mm
09:00 PM 49.6°F9.8°C 48.3°F9.1°C 95% Calm Calm -- 29.75 in1007.5 mb 0.00 in0.0 mm 0.00 in0.0 mm 0.12 in3.0 mm
09:15 PM 49.6°F9.8°C 48.3°F9.1°C 95% Calm Calm -- 29.75 in1007.5 mb 0.00 in0.0 mm 0.00 in0.0 mm 0.12 in3.0 mm
09:30 PM 49.6°F9.8°C 48.3°F9.1°C 95% Calm Calm -- 29.74 in1007.1 mb 0.00 in0.0 mm 0.00 in0.0 mm 0.12 in3.0 mm
09:45 PM 49.5°F9.7°C 48.1°F8.9°C 95% Calm Calm -- 29.74 in1007.1 mb 0.00 in0.0 mm 0.00 in0.0 mm 0.12 in3.0 mm
10:00 PM 49.6°F9.8°C 48.3°F9.1°C 95% Calm Calm -- 29.75 in1007.5 mb 0.00 in0.0 mm 0.00 in0.0 mm 0.12 in3.0 mm
10:15 PM 49.3°F9.6°C 47.9°F8.8°C 95% Calm Calm -- 29.74 in1007.1 mb 0.00 in0.0 mm 0.00 in0.0 mm 0.12 in3.0 mm
10:30 PM 49.3°F9.6°C 47.9°F8.8°C 95% Calm Calm -- 29.73 in1006.8 mb 0.02 in0.5 mm 0.08 in2.0 mm 0.14 in3.6 mm
10:45 PM 49.3°F9.6°C 47.9°F8.8°C 95% Calm Calm -- 29.73 in1006.8 mb 0.02 in0.5 mm 0.00 in0.0 mm 0.14 in3.6 mm
11:00 PM 49.3°F9.6°C 47.9°F8.8°C 95% Calm Calm -- 29.73 in1006.8 mb 0.02 in0.5 mm 0.00 in0.0 mm 0.14 in3.6 mm
11:15 PM 49.3°F9.6°C 47.9°F8.8°C 95% Calm Calm -- 29.72 in1006.4 mb 0.02 in0.5 mm 0.00 in0.0 mm 0.14 in3.6 mm
11:30 PM 49.3°F9.6°C 47.9°F8.8°C 95% 0.2 mph ENE0.3 kmh ENE 2.0 mph3.2 kmh 29.72 in1006.4 mb 0.00 in0.0 mm 0.00 in0.0 mm 0.14 in3.6 mm
11:45 PM 49.3°F9.6°C 47.9°F8.8°C 95% Calm Calm -- 29.72 in1006.4 mb 0.00 in0.0 mm 0.00 in0.0 mm 0.14 in3.6 mm